createdAt,value
2018-11-04T00:00:20.548Z,96005.00
2018-11-04T00:05:50.557Z,96013.00
2018-11-04T00:11:19.837Z,95987.00
2018-11-04T00:16:49.207Z,95991.00
2018-11-04T00:22:18.576Z,95980.00
2018-11-04T00:27:47.826Z,95981.00
2018-11-04T00:33:17.404Z,95980.00
2018-11-04T00:38:46.668Z,95966.00
2018-11-04T00:44:15.973Z,95966.00
2018-11-04T00:49:45.411Z,95964.00
2018-11-04T00:55:15.114Z,95962.00
2018-11-04T01:00:44.383Z,95952.00
2018-11-04T01:06:13.667Z,95941.00
2018-11-04T01:11:42.921Z,95939.00
2018-11-04T01:17:12.240Z,95935.00
2018-11-04T01:22:42.567Z,95931.00
2018-11-04T01:28:11.832Z,95941.00
2018-11-04T01:33:41.427Z,95924.00
2018-11-04T01:39:11.115Z,95925.00
2018-11-04T01:44:40.376Z,95912.00
2018-11-04T01:50:13.304Z,95905.00
2018-11-04T01:55:42.591Z,95902.00
2018-11-04T02:01:11.849Z,95895.00
2018-11-04T02:06:41.102Z,95872.00
2018-11-04T02:12:10.342Z,95874.00
2018-11-04T02:17:40.595Z,95863.00
2018-11-04T02:23:09.835Z,95866.00
2018-11-04T02:28:40.265Z,95858.00
2018-11-04T02:34:09.538Z,95880.00
2018-11-04T02:39:39.823Z,95869.00
2018-11-04T02:45:09.494Z,95868.00
2018-11-04T02:50:38.793Z,95863.00
2018-11-04T02:56:08.064Z,95849.00
2018-11-04T03:01:37.482Z,95855.00
2018-11-04T03:07:06.800Z,95859.00
2018-11-04T03:12:36.176Z,95858.00
2018-11-04T03:18:05.384Z,95848.00
2018-11-04T03:23:34.692Z,95847.00
2018-11-04T03:29:03.952Z,95839.00
2018-11-04T03:34:33.349Z,95844.00
2018-11-04T03:40:02.709Z,95830.00
2018-11-04T03:45:32.971Z,95831.00
2018-11-04T03:51:02.189Z,95829.00
2018-11-04T03:56:31.498Z,95823.00
2018-11-04T04:02:00.705Z,95812.00
2018-11-04T04:07:31.531Z,95807.00
2018-11-04T04:13:01.553Z,95807.00
2018-11-04T04:18:30.841Z,95811.00
2018-11-04T04:24:00.129Z,95797.00
2018-11-04T04:29:29.351Z,95794.00
2018-11-04T04:34:58.707Z,95778.00
2018-11-04T04:40:27.988Z,95779.00
2018-11-04T04:45:57.403Z,95768.00
2018-11-04T04:51:26.637Z,95765.00
2018-11-04T04:56:55.998Z,95765.00
2018-11-04T05:02:25.387Z,95758.00
2018-11-04T05:07:55.716Z,95738.00
2018-11-04T05:13:24.941Z,95761.00
2018-11-04T05:18:54.324Z,95774.00
2018-11-04T05:24:23.607Z,95774.00
2018-11-04T05:29:52.896Z,95775.00
2018-11-04T05:35:22.169Z,95766.00
2018-11-04T05:40:51.411Z,95768.00
2018-11-04T05:46:21.696Z,95763.00
2018-11-04T05:51:50.931Z,95763.00
2018-11-04T05:57:20.208Z,95764.00
2018-11-04T06:02:49.457Z,95769.00
2018-11-04T06:08:18.804Z,95751.00
2018-11-04T06:13:48.096Z,95755.00
2018-11-04T06:19:17.547Z,95750.00
2018-11-04T06:24:46.840Z,95758.00
2018-11-04T06:30:16.132Z,95764.00
2018-11-04T06:35:45.406Z,95767.00
2018-11-04T06:41:14.741Z,95766.00
2018-11-04T06:46:44.012Z,95761.00
2018-11-04T06:52:13.309Z,95775.00
2018-11-04T06:57:42.529Z,95765.00
2018-11-04T07:03:11.737Z,95765.00
2018-11-04T07:08:41.088Z,95768.00
2018-11-04T07:14:10.436Z,95757.00
2018-11-04T07:19:39.757Z,95754.00
2018-11-04T07:25:09.065Z,95758.00
2018-11-04T07:30:38.347Z,95773.00
2018-11-04T07:36:07.717Z,95755.00
2018-11-04T07:41:37.040Z,95768.00
2018-11-04T07:47:06.461Z,95778.00
2018-11-04T07:52:35.704Z,95775.00
2018-11-04T07:58:05.065Z,95775.00
2018-11-04T08:03:34.582Z,95760.00
2018-11-04T08:09:04.833Z,95770.00
2018-11-04T08:14:34.217Z,95746.00
2018-11-04T08:20:03.737Z,95753.00
2018-11-04T08:25:32.984Z,95756.00
2018-11-04T08:31:02.271Z,95749.00
2018-11-04T08:36:31.556Z,95731.00
2018-11-04T08:42:00.787Z,95748.00
2018-11-04T08:47:30.056Z,95740.00
2018-11-04T08:52:59.435Z,95745.00
2018-11-04T08:58:28.728Z,95735.00
2018-11-04T09:03:57.984Z,95733.00
2018-11-04T09:09:27.258Z,95725.00
2018-11-04T09:14:58.476Z,95711.00
2018-11-04T09:20:27.735Z,95722.00
2018-11-04T09:25:57.249Z,95698.00
2018-11-04T09:31:26.661Z,95688.00
2018-11-04T09:36:55.993Z,95694.00
2018-11-04T09:42:25.562Z,95691.00
2018-11-04T09:47:57.294Z,95700.00
2018-11-04T09:53:26.817Z,95692.00
2018-11-04T09:58:56.187Z,95698.00
2018-11-04T10:04:26.619Z,95698.00
2018-11-04T10:09:55.899Z,95684.00
2018-11-04T10:15:25.272Z,95672.00
2018-11-04T10:20:55.091Z,95661.00
2018-11-04T10:26:24.169Z,95651.00
2018-11-04T10:31:53.580Z,95648.00
2018-11-04T10:37:23.029Z,95644.00
2018-11-04T10:42:52.200Z,95640.00
2018-11-04T10:48:21.569Z,95637.00
2018-11-04T10:53:50.929Z,95632.00
2018-11-04T10:59:20.372Z,95628.00
2018-11-04T11:04:49.657Z,95605.00
2018-11-04T11:10:20.871Z,95612.00
2018-11-04T11:15:50.196Z,95610.00
2018-11-04T11:21:19.472Z,95613.00
2018-11-04T11:26:48.972Z,95602.00
2018-11-04T11:32:18.619Z,95600.00
2018-11-04T11:37:48.025Z,95594.00
2018-11-04T11:43:17.319Z,95584.00
2018-11-04T11:48:46.749Z,95566.00
2018-11-04T11:54:17.044Z,95574.00
2018-11-04T11:59:46.537Z,95562.00
2018-11-04T12:05:15.978Z,95557.00
2018-11-04T12:10:45.444Z,95546.00
2018-11-04T12:16:14.830Z,95545.00
2018-11-04T12:21:44.291Z,95552.00
2018-11-04T12:27:15.142Z,95531.00
2018-11-04T12:32:45.547Z,95524.00
2018-11-04T12:38:15.092Z,95531.00
2018-11-04T12:43:44.556Z,95510.00
2018-11-04T12:49:13.937Z,95509.00
2018-11-04T12:54:44.091Z,95498.00
2018-11-04T13:00:14.719Z,95485.00
2018-11-04T13:05:44.198Z,95473.00
2018-11-04T13:11:13.547Z,95462.00
2018-11-04T13:16:42.848Z,95469.00
2018-11-04T13:22:12.188Z,95466.00
2018-11-04T13:27:41.611Z,95469.00
2018-11-04T13:33:11.119Z,95467.00
2018-11-04T13:38:40.377Z,95445.00
2018-11-04T13:44:09.785Z,95450.00
2018-11-04T13:49:40.070Z,95442.00
2018-11-04T13:55:09.544Z,95440.00
2018-11-04T14:00:40.296Z,95450.00
2018-11-04T14:06:09.875Z,95434.00
2018-11-04T14:11:39.271Z,95435.00
2018-11-04T14:17:08.628Z,95430.00
2018-11-04T14:22:38.058Z,95424.00
2018-11-04T14:28:07.548Z,95430.00
2018-11-04T14:33:36.893Z,95431.00
2018-11-04T14:39:08.573Z,95430.00
2018-11-04T14:44:37.932Z,95416.00
2018-11-04T14:50:12.980Z,95408.00
2018-11-04T14:55:42.365Z,95405.00
2018-11-04T15:01:11.949Z,95398.00
2018-11-04T15:06:41.215Z,95400.00
2018-11-04T15:12:10.697Z,95389.00
2018-11-04T15:17:40.599Z,95381.00
2018-11-04T15:23:11.145Z,95393.00
2018-11-04T15:28:40.581Z,95377.00
2018-11-04T15:34:10.118Z,95372.00
2018-11-04T15:39:39.492Z,95380.00
2018-11-04T15:45:10.525Z,95361.00
2018-11-04T15:50:39.860Z,95368.00
2018-11-04T15:56:09.136Z,95359.00
2018-11-04T16:01:38.562Z,95369.00
2018-11-04T16:07:07.923Z,95369.00
2018-11-04T16:12:37.738Z,95376.00
2018-11-04T16:18:07.255Z,95370.00
2018-11-04T16:23:36.752Z,95373.00
2018-11-04T16:29:06.476Z,95368.00
2018-11-04T16:34:36.401Z,95374.00
2018-11-04T16:40:07.209Z,95374.00
2018-11-04T16:45:36.545Z,95377.00
2018-11-04T16:51:06.895Z,95381.00
2018-11-04T16:56:36.512Z,95378.00
2018-11-04T17:02:06.584Z,95373.00
2018-11-04T17:07:36.006Z,95367.00
2018-11-04T17:13:05.949Z,95357.00
2018-11-04T17:18:35.581Z,95360.00
2018-11-04T17:24:05.330Z,95351.00
2018-11-04T17:29:34.911Z,95334.00
2018-11-04T17:35:04.419Z,95335.00
2018-11-04T17:40:33.684Z,95331.00
2018-11-04T17:46:02.989Z,95337.00
2018-11-04T17:51:32.420Z,95337.00
2018-11-04T17:57:01.768Z,95338.00
2018-11-04T18:02:31.111Z,95340.00
2018-11-04T18:08:00.444Z,95346.00
2018-11-04T18:13:29.819Z,95346.00
2018-11-04T18:18:59.114Z,95345.00
2018-11-04T18:24:28.544Z,95342.00
2018-11-04T18:29:57.856Z,95331.00
2018-11-04T18:35:27.314Z,95333.00
2018-11-04T18:40:56.592Z,95347.00
2018-11-04T18:46:25.818Z,95330.00
2018-11-04T18:51:55.136Z,95328.00
2018-11-04T18:57:24.534Z,95331.00
2018-11-04T19:02:53.975Z,95338.00
2018-11-04T19:08:23.339Z,95339.00
2018-11-04T19:13:52.808Z,95333.00
2018-11-04T19:19:22.187Z,95325.00
2018-11-04T19:24:51.550Z,95313.00
2018-11-04T19:30:22.890Z,95314.00
2018-11-04T19:35:52.183Z,95305.00
2018-11-04T19:41:21.498Z,95297.00
2018-11-04T19:46:50.839Z,95314.00
2018-11-04T19:52:20.247Z,95293.00
2018-11-04T19:57:51.006Z,95299.00
2018-11-04T20:03:20.592Z,95311.00
2018-11-04T20:08:55.159Z,95308.00
2018-11-04T20:14:24.995Z,95325.00
2018-11-04T20:19:59.824Z,95309.00
2018-11-04T20:25:34.167Z,95306.00
2018-11-04T20:31:03.619Z,95309.00
2018-11-04T20:36:33.048Z,95304.00
2018-11-04T20:42:02.403Z,95289.00
2018-11-04T20:47:38.240Z,95289.00
2018-11-04T20:53:07.643Z,95297.00
2018-11-04T20:58:37.035Z,95293.00
2018-11-04T21:04:08.024Z,95281.00
2018-11-04T21:09:37.438Z,95263.00
2018-11-04T21:15:07.405Z,95269.00
2018-11-04T21:20:36.724Z,95284.00
2018-11-04T21:26:06.219Z,95279.00
2018-11-04T21:31:35.582Z,95260.00
2018-11-04T21:37:06.111Z,95258.00
2018-11-04T21:42:35.525Z,95240.00
2018-11-04T21:48:04.836Z,95251.00
2018-11-04T21:53:34.345Z,95252.00
2018-11-04T21:59:03.685Z,95251.00
2018-11-04T22:04:33.061Z,95235.00
2018-11-04T22:10:02.351Z,95249.00
2018-11-04T22:15:32.724Z,95263.00
2018-11-04T22:21:02.447Z,95250.00
2018-11-04T22:26:31.860Z,95239.00
2018-11-04T22:32:01.265Z,95239.00
2018-11-04T22:37:30.678Z,95238.00
2018-11-04T22:42:59.912Z,95239.00
2018-11-04T22:48:29.245Z,95228.00
2018-11-04T22:53:58.619Z,95214.00
2018-11-04T22:59:27.959Z,95218.00
2018-11-04T23:05:02.485Z,95219.00
2018-11-04T23:10:31.786Z,95190.00
2018-11-04T23:16:01.077Z,95205.00
2018-11-04T23:21:30.360Z,95188.00
2018-11-04T23:26:59.775Z,95193.00
2018-11-04T23:32:28.999Z,95183.00
2018-11-04T23:37:58.214Z,95182.00
2018-11-04T23:43:27.460Z,95179.00
2018-11-04T23:48:56.747Z,95178.00
2018-11-04T23:54:25.968Z,95154.00
2018-11-04T23:59:55.215Z,95148.00
